首页
METAR-TAF:

METAR-TAF

机场 :

Ponta Delgada, 亚速尔群岛, 葡萄牙

纬度: 37-44N, 经度: 025-42W, 海拔: 71米

当前天气观测

该预报发布于42分钟前的02:30 UTC
风速11节,风向多变,有时为21节阵风
温度 14°C
湿度 72%
气压 1033 hPa
能见度10公里或以上
少量云层高于1800英尺

METAR: LPPD 220230Z VRB11G21KT 9999 FEW018 14/09 Q1033

时间: 02:12 (03:12 UTC)

预报

该预报发布于4小时和12分钟前的23:00 UTC
预报有效从22日的 00点(UTC)到 22日的 24点(UTC)
风速15节,风向北转东北
能见度10公里或以上
散云层高于2000英尺
短暂存在
从 22日的 00点(UTC)到 22日的 24点(UTC)
少量云层高于1500英尺
多云层高于3000英尺
几率 40% :
短暂存在
从 22日的 00点(UTC)到 22日的 10点(UTC)
风速18节,风向,有时为28节阵风
成为
从 22日的 10点(UTC)到 22日的 12点(UTC)
风速15节,风向东北
几率 30% :
短暂存在
从 22日的 12点(UTC)到 22日的 20点(UTC)
风速18节,风向东转东北,有时为28节阵风

TAF: LPPD 212300Z 2200/2224 02015KT 9999 SCT020 TEMPO 2200/2224 FEW015 BKN030 PROB40 TEMPO 2200/2210 01018G28KT BECMG 2210/2212 05015KT PROB30 TEMPO 2212/2220 06018G28KT

超过4000个机场的气象观测和天气预报(METAR&TAF报告)。

可查询的气象台以黄色和红色小点在地图上表示。

将鼠标移到小点上方,可查看气象台名称。

然后点击查看天气观测和预报。

如需切换地图:点击带黑十字的绿色按钮放大地图;点击带横线的绿色按钮缩小地图;或者点击绿色箭头查看邻近地区的地图。


METAR-TAF: